createdAt,value
2023-04-27T00:00:02.223Z,9.40
2023-04-27T00:01:02.225Z,9.30
2023-04-27T00:02:02.397Z,9.20
2023-04-27T00:03:02.381Z,9.30
2023-04-27T00:04:02.450Z,8.80
2023-04-27T00:05:02.471Z,8.80
2023-04-27T00:06:02.313Z,8.80
2023-04-27T00:07:02.154Z,9.00
2023-04-27T00:08:02.137Z,9.40
2023-04-27T00:09:02.178Z,9.20
2023-04-27T00:10:02.147Z,9.00
2023-04-27T00:11:02.154Z,9.80
2023-04-27T00:12:02.163Z,9.30
2023-04-27T00:13:02.100Z,9.20
2023-04-27T00:14:02.110Z,9.10
2023-04-27T00:15:02.082Z,9.30
2023-04-27T00:16:02.095Z,9.60
2023-04-27T00:17:02.093Z,9.70
2023-04-27T00:18:02.155Z,9.80
2023-04-27T00:19:02.078Z,9.90
2023-04-27T00:20:02.034Z,9.30
2023-04-27T00:21:02.022Z,9.20
2023-04-27T00:22:02.060Z,9.10
2023-04-27T00:23:02.003Z,9.10
2023-04-27T00:24:02.011Z,9.60
2023-04-27T00:25:01.996Z,9.50
2023-04-27T00:26:01.954Z,9.30
2023-04-27T00:27:01.991Z,8.80
2023-04-27T00:28:01.949Z,9.30
2023-04-27T00:29:01.963Z,9.10
2023-04-27T00:30:01.975Z,9.10
2023-04-27T00:31:01.944Z,10.00
2023-04-27T00:32:01.918Z,9.60
2023-04-27T00:33:01.937Z,8.90
2023-04-27T00:34:01.896Z,9.00
2023-04-27T00:35:01.895Z,9.40
2023-04-27T00:36:01.886Z,9.00
2023-04-27T00:37:01.850Z,9.40
2023-04-27T00:38:01.920Z,9.40
2023-04-27T00:39:01.841Z,9.80
2023-04-27T00:40:01.804Z,10.00
2023-04-27T00:41:01.876Z,10.40
2023-04-27T00:42:01.800Z,9.80
2023-04-27T00:43:01.810Z,9.90
2023-04-27T00:44:01.806Z,9.90
2023-04-27T00:45:01.784Z,9.50
2023-04-27T00:46:01.836Z,9.30
2023-04-27T00:47:01.797Z,10.00
2023-04-27T00:48:01.778Z,10.20
2023-04-27T00:49:01.755Z,9.90
2023-04-27T00:50:01.725Z,9.70
2023-04-27T00:51:01.736Z,10.20
2023-04-27T00:52:01.700Z,9.50
2023-04-27T00:53:01.674Z,9.90
2023-04-27T00:54:01.692Z,10.60
2023-04-27T00:55:01.675Z,9.60
2023-04-27T00:56:01.699Z,10.20
2023-04-27T00:57:01.662Z,10.20
2023-04-27T00:58:01.655Z,10.20
2023-04-27T00:59:01.671Z,9.40
2023-04-27T01:00:01.664Z,9.50
2023-04-27T01:01:01.696Z,9.60
2023-04-27T01:02:01.684Z,9.80
2023-04-27T01:03:01.749Z,9.10
2023-04-27T01:04:01.834Z,10.40
2023-04-27T01:05:01.596Z,9.90
2023-04-27T01:06:01.874Z,10.00
2023-04-27T01:07:01.560Z,9.50
2023-04-27T01:08:01.553Z,9.70
2023-04-27T01:09:01.548Z,9.60
2023-04-27T01:10:01.514Z,9.70
2023-04-27T01:11:01.543Z,9.40
2023-04-27T01:12:01.498Z,9.60
2023-04-27T01:13:01.479Z,9.50
2023-04-27T01:14:01.487Z,9.70
2023-04-27T01:15:01.518Z,9.70
2023-04-27T01:16:01.543Z,9.60
2023-04-27T01:17:01.497Z,10.00
2023-04-27T01:18:01.560Z,10.20
2023-04-27T01:19:01.489Z,10.30
2023-04-27T01:20:01.426Z,9.80
2023-04-27T01:21:01.457Z,9.60
2023-04-27T01:22:01.417Z,9.70
2023-04-27T01:23:01.426Z,9.90
2023-04-27T01:24:01.376Z,10.60
2023-04-27T01:25:01.383Z,9.20
2023-04-27T01:26:01.383Z,9.70
2023-04-27T01:27:01.367Z,9.60
2023-04-27T01:28:01.330Z,9.90
2023-04-27T01:29:01.341Z,9.70
2023-04-27T01:30:01.307Z,9.40
2023-04-27T01:31:01.361Z,10.20
2023-04-27T01:32:01.301Z,10.10
2023-04-27T01:33:01.375Z,10.20
2023-04-27T01:34:01.279Z,9.70
2023-04-27T01:35:01.255Z,9.90
2023-04-27T01:36:01.303Z,9.50
2023-04-27T01:37:01.256Z,9.20
2023-04-27T01:38:01.243Z,9.50
2023-04-27T01:39:01.265Z,8.90
2023-04-27T01:40:01.212Z,9.80
2023-04-27T01:41:01.244Z,9.40
2023-04-27T01:42:01.209Z,9.30
2023-04-27T01:43:01.195Z,9.60
2023-04-27T01:44:01.194Z,9.40
2023-04-27T01:45:01.170Z,8.80
2023-04-27T01:46:01.232Z,9.40
2023-04-27T01:47:01.155Z,9.50
2023-04-27T01:48:01.202Z,9.70
2023-04-27T01:49:01.143Z,9.30
2023-04-27T01:50:01.122Z,9.50
2023-04-27T01:51:01.123Z,9.70
2023-04-27T01:52:01.090Z,9.80
2023-04-27T01:53:01.122Z,9.30
2023-04-27T01:54:01.084Z,8.90
2023-04-27T01:55:01.078Z,9.50
2023-04-27T01:56:01.093Z,9.30
2023-04-27T01:57:01.064Z,9.50
2023-04-27T01:58:01.050Z,9.30
2023-04-27T01:59:01.049Z,9.50
2023-04-27T02:00:01.045Z,10.10
2023-04-27T02:01:01.079Z,9.40
2023-04-27T02:02:01.141Z,9.70
2023-04-27T02:03:01.116Z,9.90
2023-04-27T02:04:01.203Z,9.50
2023-04-27T02:05:00.962Z,10.40
2023-04-27T02:06:00.979Z,9.50
2023-04-27T02:07:00.943Z,10.20
2023-04-27T02:08:00.942Z,10.00
2023-04-27T02:09:00.931Z,9.70
2023-04-27T02:10:00.928Z,10.20
2023-04-27T02:11:00.932Z,9.80
2023-04-27T02:12:00.928Z,9.10
2023-04-27T02:13:00.886Z,9.10
2023-04-27T02:14:00.885Z,10.40
2023-04-27T02:15:00.875Z,9.70
2023-04-27T02:16:00.936Z,9.80
2023-04-27T02:17:00.889Z,9.30
2023-04-27T02:18:00.862Z,10.50
2023-04-27T02:19:00.836Z,10.10
2023-04-27T02:20:00.800Z,10.00
2023-04-27T02:21:00.833Z,10.10
2023-04-27T02:22:00.832Z,10.10
2023-04-27T02:23:00.816Z,10.40
2023-04-27T02:24:00.778Z,10.20
2023-04-27T02:25:00.807Z,9.60
2023-04-27T02:26:00.812Z,10.10
2023-04-27T02:27:00.792Z,9.90
2023-04-27T02:28:00.729Z,10.00
2023-04-27T02:29:00.732Z,9.80
2023-04-27T02:30:00.710Z,10.70
2023-04-27T02:31:00.757Z,10.10
2023-04-27T02:32:00.766Z,10.80
2023-04-27T02:33:00.870Z,10.90
2023-04-27T02:34:00.678Z,10.50
2023-04-27T02:35:00.700Z,10.40
2023-04-27T02:36:00.670Z,10.30
2023-04-27T02:37:00.641Z,10.40
2023-04-27T02:38:00.623Z,10.60
2023-04-27T02:39:00.628Z,10.30
2023-04-27T02:40:00.677Z,10.60
2023-04-27T02:41:00.622Z,10.80
2023-04-27T02:42:00.625Z,10.60
2023-04-27T02:43:00.590Z,10.00
2023-04-27T02:44:00.592Z,10.90
2023-04-27T02:45:00.605Z,10.40
2023-04-27T02:46:00.537Z,10.10
2023-04-27T02:47:00.794Z,10.30
2023-04-27T02:48:00.608Z,10.20
2023-04-27T02:49:00.536Z,10.20
2023-04-27T02:50:00.523Z,10.30
2023-04-27T02:51:00.549Z,10.30
2023-04-27T02:52:00.546Z,9.70
2023-04-27T02:53:00.466Z,10.40
2023-04-27T02:54:00.487Z,10.50
2023-04-27T02:55:00.451Z,10.00
2023-04-27T02:56:00.447Z,10.10
2023-04-27T02:57:00.478Z,10.10
2023-04-27T02:58:00.418Z,10.40
2023-04-27T02:59:00.437Z,10.30
2023-04-27T03:00:00.397Z,10.10
2023-04-27T03:01:00.441Z,10.60
2023-04-27T03:02:00.396Z,10.60
2023-04-27T03:03:00.488Z,10.60
2023-04-27T03:04:00.570Z,10.60
2023-04-27T03:05:00.356Z,10.60
2023-04-27T03:06:00.361Z,10.60
2023-04-27T03:07:00.386Z,10.60
2023-04-27T03:08:00.319Z,11.10
2023-04-27T03:09:00.330Z,11.10
2023-04-27T03:10:00.303Z,11.00
2023-04-27T03:11:00.295Z,11.30
2023-04-27T03:12:00.345Z,10.80
2023-04-27T03:13:00.309Z,11.30
2023-04-27T03:14:00.273Z,11.70
2023-04-27T03:15:00.255Z,11.80
2023-04-27T03:16:00.307Z,11.50
2023-04-27T03:17:00.257Z,11.10
2023-04-27T03:18:00.276Z,11.80
2023-04-27T03:19:00.216Z,11.70
2023-04-27T03:20:00.256Z,11.90
2023-04-27T03:21:00.202Z,12.20
2023-04-27T03:22:00.218Z,11.70
2023-04-27T03:23:00.164Z,12.10
2023-04-27T03:24:00.170Z,12.00
2023-04-27T03:25:00.114Z,12.40
2023-04-27T03:26:00.156Z,12.10
2023-04-27T03:27:00.101Z,12.20
2023-04-27T03:28:00.075Z,12.50
2023-04-27T03:29:00.101Z,12.50
2023-04-27T03:30:00.065Z,12.90
2023-04-27T03:31:00.041Z,13.00
2023-04-27T03:32:00.246Z,12.70
2023-04-27T03:33:00.054Z,12.90
2023-04-27T03:33:59.997Z,13.10
2023-04-27T03:34:59.988Z,12.60
2023-04-27T03:35:59.992Z,13.00
2023-04-27T03:37:00.055Z,13.40
2023-04-27T03:37:59.987Z,13.00
2023-04-27T03:38:59.978Z,12.90
2023-04-27T03:39:59.971Z,13.10
2023-04-27T03:40:59.915Z,13.40
2023-04-27T03:41:59.992Z,13.20
2023-04-27T03:42:59.940Z,13.80
2023-04-27T03:43:59.917Z,12.50
2023-04-27T03:44:59.886Z,12.80
2023-04-27T03:45:59.925Z,13.30
2023-04-27T03:46:59.900Z,13.20
2023-04-27T03:47:59.923Z,13.00
2023-04-27T03:48:59.870Z,12.80
2023-04-27T03:49:59.881Z,13.10
2023-04-27T03:50:59.843Z,12.80
2023-04-27T03:51:59.849Z,13.10
2023-04-27T03:52:59.800Z,13.00
2023-04-27T03:53:59.807Z,13.40
2023-04-27T03:54:59.779Z,14.40
2023-04-27T03:55:59.813Z,13.70
2023-04-27T03:56:59.782Z,13.60
2023-04-27T03:57:59.759Z,13.20
2023-04-27T03:58:59.762Z,13.20
2023-04-27T03:59:59.738Z,14.60
2023-04-27T04:00:59.730Z,14.70
2023-04-27T04:02:01.279Z,14.40
2023-04-27T04:02:59.908Z,14.00
2023-04-27T04:03:59.801Z,14.30
2023-04-27T04:04:59.743Z,14.10
2023-04-27T04:05:59.684Z,13.40
2023-04-27T04:06:59.702Z,14.30
2023-04-27T04:07:59.649Z,13.90
2023-04-27T04:08:59.652Z,14.80
2023-04-27T04:09:59.624Z,14.20
2023-04-27T04:10:59.661Z,14.20
2023-04-27T04:11:59.658Z,15.00
2023-04-27T04:12:59.629Z,14.60
2023-04-27T04:13:59.612Z,14.40
2023-04-27T04:14:59.609Z,14.10
2023-04-27T04:15:59.597Z,14.10
2023-04-27T04:16:59.616Z,14.60
2023-04-27T04:17:59.605Z,14.20
2023-04-27T04:18:59.571Z,14.70
2023-04-27T04:19:59.551Z,13.50
2023-04-27T04:20:59.540Z,14.10
2023-04-27T04:21:59.589Z,14.00
2023-04-27T04:22:59.566Z,14.30
2023-04-27T04:23:59.529Z,14.40
2023-04-27T04:24:59.502Z,14.40
2023-04-27T04:25:59.481Z,15.00
2023-04-27T04:26:59.502Z,15.00
2023-04-27T04:27:59.455Z,14.80
2023-04-27T04:28:59.458Z,14.00
2023-04-27T04:29:59.454Z,14.60
2023-04-27T04:30:59.449Z,14.90
2023-04-27T04:31:59.521Z,14.10
2023-04-27T04:32:59.501Z,14.30
2023-04-27T04:33:59.415Z,14.50
2023-04-27T04:34:59.377Z,14.50
2023-04-27T04:35:59.381Z,13.90
2023-04-27T04:36:59.411Z,14.90
2023-04-27T04:37:59.361Z,14.70
2023-04-27T04:38:59.454Z,14.50
2023-04-27T04:39:59.338Z,14.40
2023-04-27T04:40:59.324Z,14.20
2023-04-27T04:41:59.352Z,13.90
2023-04-27T04:42:59.318Z,13.10
2023-04-27T04:43:59.308Z,12.30
2023-04-27T04:44:59.279Z,10.70
2023-04-27T04:45:59.275Z,10.80
2023-04-27T04:46:59.455Z,10.10
2023-04-27T04:47:59.315Z,10.00
2023-04-27T04:48:59.268Z,10.00
2023-04-27T04:49:59.276Z,10.20
2023-04-27T04:50:59.227Z,10.00
2023-04-27T04:51:59.261Z,10.40
2023-04-27T04:52:59.232Z,10.80
2023-04-27T04:54:01.633Z,10.40
2023-04-27T04:54:59.466Z,9.70
2023-04-27T04:55:59.303Z,9.90
2023-04-27T04:56:59.249Z,9.60
2023-04-27T04:57:59.200Z,10.50
2023-04-27T04:58:59.147Z,10.20
2023-04-27T04:59:59.150Z,10.10
2023-04-27T05:00:59.124Z,10.70
2023-04-27T05:01:59.188Z,9.70
2023-04-27T05:02:59.315Z,9.90
2023-04-27T05:03:59.318Z,10.20
2023-04-27T05:04:59.148Z,9.20
2023-04-27T05:05:59.130Z,9.60
2023-04-27T05:06:59.109Z,8.80
2023-04-27T05:07:59.058Z,8.40
2023-04-27T05:08:59.056Z,8.00
2023-04-27T05:09:59.050Z,8.20
2023-04-27T05:10:59.028Z,8.00
2023-04-27T05:11:59.044Z,7.50
2023-04-27T05:12:59.014Z,7.30
2023-04-27T05:13:59.010Z,7.40
2023-04-27T05:14:58.993Z,7.10
2023-04-27T05:15:59.019Z,7.20
2023-04-27T05:16:58.993Z,7.10
2023-04-27T05:17:58.994Z,7.10
2023-04-27T05:18:58.951Z,6.60
2023-04-27T05:19:59.239Z,6.90
2023-04-27T05:20:59.005Z,6.80
2023-04-27T05:21:58.969Z,6.50
2023-04-27T05:22:58.887Z,6.90
2023-04-27T05:23:58.901Z,6.80
2023-04-27T05:24:58.869Z,6.70
2023-04-27T05:25:58.890Z,6.70
2023-04-27T05:27:00.742Z,6.70
2023-04-27T05:27:58.879Z,6.60
2023-04-27T05:28:58.904Z,7.00
2023-04-27T05:29:58.841Z,6.80
2023-04-27T05:30:58.868Z,7.00
2023-04-27T05:31:58.959Z,6.50
2023-04-27T05:32:58.825Z,6.60
2023-04-27T05:33:58.855Z,6.50
2023-04-27T05:34:59.195Z,6.50
2023-04-27T05:35:58.811Z,6.70
2023-04-27T05:36:58.851Z,6.30
2023-04-27T05:37:58.780Z,6.50
2023-04-27T05:38:58.765Z,6.00
2023-04-27T05:39:58.790Z,6.20
2023-04-27T05:40:58.751Z,6.20
2023-04-27T05:41:58.753Z,6.30
2023-04-27T05:42:58.785Z,5.80
2023-04-27T05:43:58.839Z,5.80
2023-04-27T05:44:58.734Z,6.20
2023-04-27T05:45:58.725Z,6.50
2023-04-27T05:46:58.744Z,5.90
2023-04-27T05:47:58.723Z,6.60
2023-04-27T05:48:58.667Z,6.50
2023-04-27T05:49:58.669Z,6.20
2023-04-27T05:50:58.721Z,6.30
2023-04-27T05:51:58.683Z,6.40
2023-04-27T05:52:58.697Z,5.80
2023-04-27T05:53:58.623Z,6.00
2023-04-27T05:54:58.584Z,5.90
2023-04-27T05:55:58.595Z,6.20
2023-04-27T05:56:58.725Z,5.80
2023-04-27T05:58:07.979Z,5.50
2023-04-27T05:59:00.524Z,5.60
2023-04-27T05:59:58.552Z,5.20
2023-04-27T06:00:58.630Z,5.20
2023-04-27T06:01:58.624Z,5.00
2023-04-27T06:02:58.692Z,5.10
2023-04-27T06:03:58.582Z,5.00
2023-04-27T06:04:58.500Z,5.70
2023-04-27T06:05:59.120Z,4.80
2023-04-27T06:06:58.453Z,4.50
2023-04-27T06:07:58.492Z,4.60
2023-04-27T06:08:58.447Z,4.30
2023-04-27T06:09:58.439Z,4.40
2023-04-27T06:10:58.934Z,4.00
2023-04-27T06:11:58.438Z,4.00
2023-04-27T06:12:58.414Z,4.10
2023-04-27T06:13:58.455Z,4.30
2023-04-27T06:14:58.376Z,4.30
2023-04-27T06:15:58.437Z,4.20
2023-04-27T06:16:58.338Z,3.80
2023-04-27T06:17:58.451Z,3.40
2023-04-27T06:18:58.366Z,3.30
2023-04-27T06:19:58.320Z,3.60
2023-04-27T06:20:58.293Z,3.80
2023-04-27T06:21:58.345Z,3.20
2023-04-27T06:22:58.346Z,3.20
2023-04-27T06:23:58.299Z,2.80
2023-04-27T06:24:58.265Z,3.70
2023-04-27T06:25:58.270Z,3.60
2023-04-27T06:26:58.233Z,3.90
2023-04-27T06:27:58.277Z,3.20
2023-04-27T06:28:58.286Z,3.40
2023-04-27T06:29:58.208Z,3.50
2023-04-27T06:30:58.207Z,3.30
2023-04-27T06:31:58.230Z,3.60
2023-04-27T06:32:58.228Z,3.80
2023-04-27T06:33:58.193Z,4.30
2023-04-27T06:34:58.147Z,4.10
2023-04-27T06:35:58.214Z,3.90
2023-04-27T06:36:58.143Z,3.70
2023-04-27T06:37:58.166Z,3.70
2023-04-27T06:38:58.159Z,3.30
2023-04-27T06:39:58.105Z,3.10
2023-04-27T06:40:58.106Z,2.80
2023-04-27T06:41:58.104Z,3.20
2023-04-27T06:42:58.088Z,3.30
2023-04-27T06:43:59.055Z,3.60
2023-04-27T06:44:58.125Z,3.20
2023-04-27T06:45:58.122Z,3.60
2023-04-27T06:46:58.033Z,3.40
2023-04-27T06:47:58.110Z,3.50
2023-04-27T06:48:58.009Z,3.50
2023-04-27T06:49:58.044Z,3.60
2023-04-27T06:50:57.976Z,3.80
2023-04-27T06:51:57.985Z,3.50
2023-04-27T06:52:58.032Z,3.30
2023-04-27T06:53:57.995Z,3.10
2023-04-27T06:54:57.971Z,3.10
2023-04-27T06:55:57.923Z,3.10
2023-04-27T06:56:57.952Z,3.30
2023-04-27T06:57:57.936Z,3.60
2023-04-27T06:58:57.966Z,3.50
2023-04-27T06:59:57.982Z,3.90
2023-04-27T07:00:57.932Z,3.70
2023-04-27T07:01:57.997Z,3.80
2023-04-27T07:02:57.977Z,3.60
2023-04-27T07:03:58.020Z,3.40
2023-04-27T07:04:57.880Z,3.10
2023-04-27T07:05:57.822Z,3.00
2023-04-27T07:06:57.934Z,2.90
2023-04-27T07:07:58.286Z,3.00
2023-04-27T07:08:57.827Z,3.10
2023-04-27T07:09:57.818Z,2.80
2023-04-27T07:10:57.795Z,3.10
2023-04-27T07:11:57.853Z,2.70
2023-04-27T07:12:57.767Z,2.60
2023-04-27T07:13:57.789Z,3.10
2023-04-27T07:14:57.733Z,2.70
2023-04-27T07:15:58.003Z,2.70
2023-04-27T07:16:57.906Z,2.30
2023-04-27T07:17:57.777Z,2.40
2023-04-27T07:18:57.728Z,2.30
2023-04-27T07:19:57.699Z,2.20
2023-04-27T07:20:57.700Z,2.20
2023-04-27T07:21:57.677Z,2.20
2023-04-27T07:22:57.688Z,2.20
2023-04-27T07:23:57.662Z,2.30
2023-04-27T07:24:57.615Z,2.30
2023-04-27T07:25:57.623Z,2.40
2023-04-27T07:26:57.614Z,2.50
2023-04-27T07:27:57.627Z,2.40
2023-04-27T07:28:57.601Z,2.40
2023-04-27T07:29:57.566Z,2.60
2023-04-27T07:30:57.581Z,2.50
2023-04-27T07:31:57.566Z,2.70
2023-04-27T07:32:57.673Z,2.70
2023-04-27T07:33:57.567Z,2.70
2023-04-27T07:34:57.588Z,2.60
2023-04-27T07:35:57.501Z,2.30
2023-04-27T07:36:57.549Z,2.90
2023-04-27T07:37:57.564Z,2.80
2023-04-27T07:38:57.489Z,2.90
2023-04-27T07:39:57.497Z,2.80
2023-04-27T07:40:57.440Z,2.80
2023-04-27T07:41:57.478Z,2.90
2023-04-27T07:42:57.462Z,2.90
2023-04-27T07:43:57.427Z,2.60
2023-04-27T07:44:57.555Z,2.70
2023-04-27T07:45:57.438Z,2.90
2023-04-27T07:46:57.426Z,3.00
2023-04-27T07:47:58.850Z,2.70
2023-04-27T07:48:57.384Z,3.10
2023-04-27T07:49:57.359Z,2.90
2023-04-27T07:50:57.361Z,2.50
2023-04-27T07:51:57.312Z,2.50
2023-04-27T07:52:57.335Z,2.60
2023-04-27T07:53:57.297Z,2.60
2023-04-27T07:54:57.303Z,2.50
2023-04-27T07:55:57.269Z,2.40
2023-04-27T07:56:57.288Z,2.60
2023-04-27T07:57:57.334Z,2.50
2023-04-27T07:58:57.273Z,2.60
2023-04-27T07:59:57.244Z,2.50
2023-04-27T08:00:57.240Z,2.40
2023-04-27T08:02:10.846Z,2.50
2023-04-27T08:02:57.726Z,2.50
2023-04-27T08:03:57.480Z,2.60
2023-04-27T08:04:57.462Z,2.60
2023-04-27T08:05:57.532Z,2.60
2023-04-27T08:06:57.389Z,2.90
2023-04-27T08:07:57.510Z,3.10
2023-04-27T08:08:57.169Z,2.60
2023-04-27T08:09:57.154Z,3.00
2023-04-27T08:10:57.161Z,2.70
2023-04-27T08:11:57.114Z,2.60
2023-04-27T08:12:57.122Z,2.50
2023-04-27T08:13:57.108Z,2.30
2023-04-27T08:14:57.081Z,2.10
2023-04-27T08:15:57.104Z,2.30
2023-04-27T08:16:57.142Z,2.20
2023-04-27T08:17:57.124Z,2.50
2023-04-27T08:18:58.599Z,2.60
2023-04-27T08:19:57.027Z,2.30
2023-04-27T08:20:57.027Z,2.50
2023-04-27T08:21:57.029Z,2.40
2023-04-27T08:22:57.030Z,2.20
2023-04-27T08:23:56.995Z,2.60
2023-04-27T08:24:56.988Z,2.30
2023-04-27T08:25:56.952Z,2.30
2023-04-27T08:26:56.951Z,2.10
2023-04-27T08:27:56.986Z,2.40
2023-04-27T08:28:56.970Z,2.30
2023-04-27T08:29:56.939Z,2.20
2023-04-27T08:30:56.966Z,2.10
2023-04-27T08:31:57.217Z,2.30
2023-04-27T08:32:56.939Z,2.30
2023-04-27T08:33:56.900Z,2.30
2023-04-27T08:34:56.872Z,2.40
2023-04-27T08:35:56.856Z,2.30
2023-04-27T08:36:56.872Z,2.30
2023-04-27T08:37:56.875Z,2.70
2023-04-27T08:38:56.886Z,2.30
2023-04-27T08:39:56.827Z,2.30
2023-04-27T08:40:58.131Z,2.10
2023-04-27T08:41:56.813Z,2.50
2023-04-27T08:42:56.837Z,2.60
2023-04-27T08:43:59.044Z,2.40
2023-04-27T08:44:56.767Z,2.30
2023-04-27T08:45:56.779Z,2.50
2023-04-27T08:46:56.763Z,2.30
2023-04-27T08:47:56.853Z,2.40
2023-04-27T08:48:56.756Z,2.10
2023-04-27T08:49:56.718Z,2.40
2023-04-27T08:50:56.710Z,2.20
2023-04-27T08:51:56.704Z,2.40
2023-04-27T08:52:56.737Z,2.40
2023-04-27T08:53:56.708Z,2.60
2023-04-27T08:54:56.693Z,2.40
2023-04-27T08:55:56.673Z,2.60
2023-04-27T08:56:56.657Z,2.70
2023-04-27T08:57:56.669Z,2.70
2023-04-27T08:58:56.641Z,3.00
2023-04-27T08:59:56.622Z,2.60
2023-04-27T09:00:56.612Z,2.50
2023-04-27T09:01:56.639Z,2.60
2023-04-27T09:02:56.731Z,2.70
2023-04-27T09:03:56.733Z,2.60
2023-04-27T09:04:56.836Z,2.60
2023-04-27T09:06:05.138Z,2.70
2023-04-27T09:06:56.565Z,2.60
2023-04-27T09:07:56.556Z,2.50
2023-04-27T09:08:56.546Z,2.80
2023-04-27T09:09:56.522Z,2.50
2023-04-27T09:10:56.524Z,2.50
2023-04-27T09:11:56.512Z,2.40
2023-04-27T09:12:56.540Z,2.60
2023-04-27T09:13:56.495Z,2.50
2023-04-27T09:14:56.478Z,2.80
2023-04-27T09:15:56.507Z,2.70
2023-04-27T09:16:56.470Z,2.50
2023-04-27T09:17:56.634Z,2.80
2023-04-27T09:18:56.450Z,3.00
2023-04-27T09:19:56.423Z,2.70
2023-04-27T09:20:56.426Z,2.90
2023-04-27T09:21:56.404Z,2.40
2023-04-27T09:22:56.419Z,2.60
2023-04-27T09:23:56.392Z,2.60
2023-04-27T09:24:56.378Z,2.50
2023-04-27T09:25:56.367Z,2.80
2023-04-27T09:26:56.689Z,2.90
2023-04-27T09:27:56.402Z,2.70
2023-04-27T09:28:56.346Z,2.70
2023-04-27T09:29:56.326Z,2.60
2023-04-27T09:30:56.303Z,2.80
2023-04-27T09:31:56.378Z,2.30
2023-04-27T09:32:56.369Z,2.50
2023-04-27T09:33:56.296Z,2.40
2023-04-27T09:34:56.277Z,2.50
2023-04-27T09:35:56.252Z,2.50
2023-04-27T09:36:56.253Z,2.30
2023-04-27T09:37:56.303Z,2.30
2023-04-27T09:38:56.249Z,2.40
2023-04-27T09:39:56.219Z,2.70
2023-04-27T09:40:56.225Z,2.40
2023-04-27T09:41:56.214Z,2.40
2023-04-27T09:42:56.239Z,2.60
2023-04-27T09:43:57.847Z,2.60
2023-04-27T09:44:56.186Z,2.70
2023-04-27T09:45:56.219Z,2.60
2023-04-27T09:46:56.173Z,2.60
2023-04-27T09:47:56.272Z,2.50
2023-04-27T09:48:56.158Z,2.30
2023-04-27T09:49:56.122Z,2.20
2023-04-27T09:50:56.183Z,2.40
2023-04-27T09:51:56.171Z,2.60
2023-04-27T09:52:56.114Z,2.00
2023-04-27T09:53:56.114Z,2.20
2023-04-27T09:54:56.087Z,2.30
2023-04-27T09:55:56.078Z,2.30
2023-04-27T09:56:56.118Z,2.00
2023-04-27T09:57:56.051Z,2.30
2023-04-27T09:58:56.111Z,2.10
2023-04-27T09:59:56.062Z,2.60
2023-04-27T10:00:56.069Z,2.30
2023-04-27T10:01:56.056Z,2.30
2023-04-27T10:03:03.098Z,2.20
2023-04-27T10:03:56.156Z,2.50
2023-04-27T10:04:56.013Z,2.20
2023-04-27T10:05:56.042Z,2.60
2023-04-27T10:06:57.722Z,2.20
2023-04-27T10:07:55.973Z,2.70
2023-04-27T10:08:55.938Z,2.50
2023-04-27T10:09:55.922Z,2.50
2023-04-27T10:10:55.917Z,2.50
2023-04-27T10:11:55.986Z,2.30
2023-04-27T10:12:55.905Z,2.50
2023-04-27T10:13:55.899Z,2.30
2023-04-27T10:14:55.875Z,2.50
2023-04-27T10:15:55.874Z,2.50
2023-04-27T10:16:55.906Z,2.70
2023-04-27T10:17:55.843Z,2.50
2023-04-27T10:18:55.836Z,2.50
2023-04-27T10:19:57.839Z,2.30
2023-04-27T10:20:55.819Z,2.20
2023-04-27T10:21:55.800Z,2.50
2023-04-27T10:22:55.874Z,2.60
2023-04-27T10:23:55.800Z,2.30
2023-04-27T10:24:55.766Z,2.60
2023-04-27T10:25:55.784Z,2.50
2023-04-27T10:26:55.767Z,2.50
2023-04-27T10:27:55.807Z,2.20
2023-04-27T10:28:55.753Z,2.30
2023-04-27T10:29:55.734Z,2.60
2023-04-27T10:30:55.755Z,2.30
2023-04-27T10:31:55.703Z,2.50
2023-04-27T10:32:55.770Z,2.40
2023-04-27T10:33:55.698Z,2.30
2023-04-27T10:34:55.687Z,2.30
2023-04-27T10:35:55.666Z,2.50
2023-04-27T10:36:55.695Z,2.30
2023-04-27T10:37:55.656Z,2.20
2023-04-27T10:38:55.689Z,2.20
2023-04-27T10:39:55.627Z,2.40
2023-04-27T10:40:55.663Z,2.40
2023-04-27T10:41:55.622Z,2.50
2023-04-27T10:42:55.611Z,2.60
2023-04-27T10:43:55.627Z,2.50
2023-04-27T10:44:55.587Z,2.30
2023-04-27T10:45:55.611Z,2.30
2023-04-27T10:46:55.608Z,2.40
2023-04-27T10:47:55.651Z,2.20
2023-04-27T10:48:55.568Z,2.60
2023-04-27T10:49:55.597Z,2.50
2023-04-27T10:50:55.531Z,2.60
2023-04-27T10:51:55.565Z,2.50
2023-04-27T10:52:55.519Z,2.80
2023-04-27T10:53:55.548Z,2.50
2023-04-27T10:54:55.512Z,2.50
2023-04-27T10:55:55.494Z,2.40
2023-04-27T10:56:55.526Z,2.40
2023-04-27T10:57:55.470Z,2.30
2023-04-27T10:58:55.471Z,2.20
2023-04-27T10:59:55.523Z,2.20
2023-04-27T11:00:55.448Z,2.30
2023-04-27T11:01:55.480Z,2.30
2023-04-27T11:02:55.481Z,2.40
2023-04-27T11:03:55.449Z,2.30
2023-04-27T11:04:55.421Z,2.40
2023-04-27T11:05:57.046Z,2.40
2023-04-27T11:06:55.381Z,2.60
2023-04-27T11:07:55.393Z,2.30
2023-04-27T11:08:55.375Z,2.40
2023-04-27T11:09:55.371Z,2.50
2023-04-27T11:10:55.393Z,2.20
2023-04-27T11:11:55.372Z,2.40
2023-04-27T11:12:55.389Z,2.30
2023-04-27T11:13:55.379Z,2.30
2023-04-27T11:14:55.306Z,2.60
2023-04-27T11:15:55.343Z,2.30
2023-04-27T11:16:55.281Z,2.30
2023-04-27T11:17:55.376Z,2.20
2023-04-27T11:18:55.265Z,2.30
2023-04-27T11:19:55.270Z,2.60
2023-04-27T11:20:55.259Z,2.30
2023-04-27T11:21:55.250Z,2.50
2023-04-27T11:22:55.266Z,2.40
2023-04-27T11:23:55.234Z,2.30
2023-04-27T11:24:55.206Z,2.40
2023-04-27T11:25:55.217Z,2.40
2023-04-27T11:26:55.188Z,2.60
2023-04-27T11:27:55.214Z,2.60
2023-04-27T11:28:55.217Z,2.30
2023-04-27T11:29:55.162Z,2.30
2023-04-27T11:30:55.142Z,2.40
2023-04-27T11:31:55.196Z,2.40
2023-04-27T11:32:55.198Z,2.60
2023-04-27T11:33:55.988Z,2.40
2023-04-27T11:34:56.625Z,2.10
2023-04-27T11:35:55.109Z,2.20
2023-04-27T11:36:58.702Z,2.40
2023-04-27T11:37:55.124Z,2.30
2023-04-27T11:38:55.111Z,2.40
2023-04-27T11:39:55.101Z,2.40
2023-04-27T11:40:55.068Z,2.50
2023-04-27T11:41:55.056Z,2.40
2023-04-27T11:42:55.056Z,2.60
2023-04-27T11:43:55.054Z,2.40
2023-04-27T11:44:55.011Z,2.60
2023-04-27T11:45:55.043Z,2.70
2023-04-27T11:46:55.041Z,2.40
2023-04-27T11:47:55.198Z,2.50
2023-04-27T11:48:55.004Z,2.60
2023-04-27T11:49:55.018Z,2.30
2023-04-27T11:50:55.013Z,2.50
2023-04-27T11:51:55.022Z,2.50
2023-04-27T11:52:54.988Z,2.30
2023-04-27T11:53:54.969Z,2.30
2023-04-27T11:54:54.938Z,2.10
2023-04-27T11:55:54.951Z,2.40
2023-04-27T11:56:54.907Z,2.70
2023-04-27T11:57:55.450Z,2.30
2023-04-27T11:58:54.921Z,2.30
2023-04-27T11:59:54.892Z,2.20
2023-04-27T12:00:54.848Z,2.70
2023-04-27T12:01:54.882Z,2.40
2023-04-27T12:02:54.979Z,2.40
2023-04-27T12:03:54.999Z,2.60
2023-04-27T12:04:55.104Z,2.80
2023-04-27T12:05:54.972Z,2.60
2023-04-27T12:06:54.792Z,2.70
2023-04-27T12:07:54.831Z,2.70
2023-04-27T12:08:54.809Z,2.60
2023-04-27T12:09:54.828Z,2.40
2023-04-27T12:10:54.789Z,2.60
2023-04-27T12:11:54.751Z,2.40
2023-04-27T12:12:54.765Z,2.80
2023-04-27T12:13:54.747Z,3.00
2023-04-27T12:14:54.724Z,2.50
2023-04-27T12:15:54.727Z,2.60
2023-04-27T12:16:54.766Z,2.70
2023-04-27T12:17:54.748Z,2.70
2023-04-27T12:18:54.679Z,2.70
2023-04-27T12:19:54.690Z,3.00
2023-04-27T12:20:54.759Z,3.00
2023-04-27T12:21:54.627Z,2.70
2023-04-27T12:22:54.657Z,3.00
2023-04-27T12:23:54.641Z,2.80
2023-04-27T12:24:54.600Z,2.90
2023-04-27T12:25:54.601Z,2.70
2023-04-27T12:26:54.636Z,2.50
2023-04-27T12:27:54.605Z,2.90
2023-04-27T12:28:54.595Z,2.60
2023-04-27T12:29:54.594Z,3.00
2023-04-27T12:30:54.627Z,2.70
2023-04-27T12:31:54.583Z,2.90
2023-04-27T12:32:54.653Z,2.80
2023-04-27T12:33:54.566Z,3.10
2023-04-27T12:34:54.506Z,2.60
2023-04-27T12:35:54.490Z,3.00
2023-04-27T12:36:54.515Z,2.40
2023-04-27T12:37:54.514Z,2.80
2023-04-27T12:38:54.480Z,2.60
2023-04-27T12:39:54.465Z,2.60
2023-04-27T12:40:54.440Z,3.00
2023-04-27T12:41:54.456Z,2.60
2023-04-27T12:42:54.450Z,2.90
2023-04-27T12:43:54.446Z,2.70
2023-04-27T12:44:54.419Z,3.10
2023-04-27T12:45:54.510Z,2.70
2023-04-27T12:46:54.410Z,2.60
2023-04-27T12:48:01.761Z,2.90
2023-04-27T12:48:54.401Z,2.80
2023-04-27T12:49:54.354Z,2.90
2023-04-27T12:50:54.353Z,2.80
2023-04-27T12:51:54.318Z,2.90
2023-04-27T12:52:54.393Z,2.80
2023-04-27T12:53:54.313Z,2.80
2023-04-27T12:54:54.325Z,3.00
2023-04-27T12:55:54.283Z,2.80
2023-04-27T12:56:54.281Z,3.10
2023-04-27T12:57:54.311Z,3.20
2023-04-27T12:58:54.286Z,3.10
2023-04-27T12:59:54.250Z,2.80
2023-04-27T13:00:54.216Z,2.90
2023-04-27T13:01:54.216Z,3.00
2023-04-27T13:02:54.276Z,3.70
2023-04-27T13:03:54.435Z,3.10
2023-04-27T13:04:54.419Z,2.90
2023-04-27T13:05:54.183Z,3.00
2023-04-27T13:06:54.181Z,3.00
2023-04-27T13:07:54.160Z,3.00
2023-04-27T13:08:54.163Z,3.00
2023-04-27T13:09:54.174Z,2.90
2023-04-27T13:10:54.120Z,3.00
2023-04-27T13:11:54.140Z,3.20